Time;durP1;ratioP1;P1;durP2;ratioP2;P2;SDS_P1;SDS_P2;PMS_P1;PMS_P2;Temp;Humidity;BMP_temperature;BMP_pressure;BME280_temperature;BME280_humidity;BME280_pressure;Samples;Min_cycle;Max_cycle;Signal;HPM_P1;HPM_P2
2022/08/02 00:01:33;;;;;;;5.10;2.05;;;;;;;24.56;55.33;100017.72;5011753;28;20026;-81
2022/08/02 00:04:00;;;;;;;3.67;1.70;;;;;;;24.21;56.73;99990.53;5011623;28;20041;-81
2022/08/02 00:06:45;;;;;;;6.03;1.83;;;;;;;24.21;57.18;100033.63;5012077;28;20037;-79
2022/08/02 00:09:10;;;;;;;5.97;1.85;;;;;;;24.04;57.59;100047.25;4953634;28;20039;-78
2022/08/02 00:11:36;;;;;;;3.88;1.80;;;;;;;23.97;58.22;100024.56;4970158;28;20042;-79
2022/08/02 00:14:02;;;;;;;3.63;1.90;;;;;;;24.08;58.35;100044.53;4969780;28;20046;-78
2022/08/02 00:16:28;;;;;;;3.47;1.50;;;;;;;24.06;58.55;100040.16;4953709;28;20081;-79
2022/08/02 00:18:53;;;;;;;2.90;1.67;;;;;;;23.86;58.07;99995.81;4969971;28;20047;-78
2022/08/02 00:21:19;;;;;;;3.63;1.73;;;;;;;24.07;57.57;100033.09;4969628;28;20067;-80
2022/08/02 00:23:44;;;;;;;4.20;2.00;;;;;;;24.26;56.86;100051.94;4969826;28;20402;-79
2022/08/02 00:26:10;;;;;;;7.28;2.22;;;;;;;24.27;57.11;100056.31;4969539;28;20042;-79
2022/08/02 00:28:36;;;;;;;3.35;1.80;;;;;;;24.22;59.14;100047.66;4969375;28;20049;-78
2022/08/02 00:31:01;;;;;;;4.78;2.17;;;;;;;24.27;58.55;100056.31;4973484;28;20045;-79
2022/08/02 00:33:27;;;;;;;4.97;1.80;;;;;;;24.17;58.19;100057.47;4960577;28;20047;-81
2022/08/02 00:35:52;;;;;;;5.00;1.85;;;;;;;23.98;58.36;100042.13;4953474;28;20046;-82
2022/08/02 00:38:18;;;;;;;5.18;2.00;;;;;;;24.08;58.02;100055.94;4969484;28;20046;-78
2022/08/02 00:40:51;;;;;;;3.47;1.80;;;;;;;24.05;57.37;100043.69;4998367;28;20074;-80
2022/08/02 00:43:17;;;;;;;4.10;1.70;;;;;;;23.79;56.50;99988.09;5007946;28;20042;-79
2022/08/02 00:45:43;;;;;;;3.35;1.63;;;;;;;23.56;56.19;99977.25;4993711;28;20141;-80
2022/08/02 00:48:10;;;;;;;2.17;1.60;;;;;;;24.06;55.76;100060.38;5011600;28;20488;-80
2022/08/02 00:50:37;;;;;;;3.13;1.92;;;;;;;24.14;54.92;100053.16;5011030;28;20045;-79
2022/08/02 00:53:03;;;;;;;3.85;2.00;;;;;;;24.11;55.63;100036.53;4993300;28;20034;-81
2022/08/02 00:55:29;;;;;;;7.78;2.00;;;;;;;23.89;55.44;100005.44;5021715;28;20559;-81
2022/08/02 00:57:55;;;;;;;4.22;2.10;;;;;;;24.11;57.31;100036.53;4993379;28;20042;-81
2022/08/02 01:00:21;;;;;;;2.92;1.75;;;;;;;24.13;57.63;100035.59;4993740;28;20488;-79
2022/08/02 01:02:46;;;;;;;4.45;1.80;;;;;;;24.07;57.34;100027.81;4993222;28;20057;-79
2022/08/02 01:05:12;;;;;;;2.88;1.77;;;;;;;24.17;57.63;100039.84;5011200;28;20034;-80
2022/08/02 01:07:38;;;;;;;2.42;1.70;;;;;;;24.08;58.97;100044.53;4993503;28;20124;-79
2022/08/02 01:10:05;;;;;;;4.38;1.75;;;;;;;23.97;56.72;100019.28;5011146;28;20539;-80
2022/08/02 01:12:31;;;;;;;5.40;1.52;;;;;;;23.89;57.10;100002.78;5010916;28;20032;-80
2022/08/02 01:15:01;;;;;;;4.65;1.63;;;;;;;23.94;58.16;100000.94;5010764;28;20042;-79
2022/08/02 01:17:39;;;;;;;3.28;1.65;;;;;;;24.21;58.13;100033.63;4992786;28;20041;-80
2022/08/02 01:20:35;;;;;;;2.78;1.80;;;;;;;24.32;58.38;100040.38;5011181;28;20042;-80
2022/08/02 01:23:18;;;;;;;4.22;1.63;;;;;;;24.23;57.35;100042.34;5010688;28;20058;-80
2022/08/02 01:25:52;;;;;;;5.13;1.80;;;;;;;24.27;57.83;100045.75;5011108;28;20042;-80
2022/08/02 01:28:45;;;;;;;6.05;1.90;;;;;;;24.30;56.66;100048.34;5010452;28;20099;-80
2022/08/02 01:31:26;;;;;;;6.28;1.92;;;;;;;24.16;57.99;100026.72;5010941;28;20042;-82
2022/08/02 01:34:09;;;;;;;3.92;2.10;;;;;;;24.01;56.77;100017.44;5010681;28;20034;-80
2022/08/02 01:36:45;;;;;;;4.00;1.75;;;;;;;24.03;58.38;100050.78;5010656;28;20038;-81
2022/08/02 01:39:14;;;;;;;5.07;1.70;;;;;;;23.88;56.79;100036.19;5010710;28;20033;-79
2022/08/02 01:41:41;;;;;;;3.87;1.87;;;;;;;23.80;57.56;100034.63;5010330;28;20141;-80
2022/08/02 01:44:11;;;;;;;8.60;1.80;;;;;;;23.86;58.26;100050.31;5010627;28;20041;-81
2022/08/02 01:46:39;;;;;;;4.53;1.85;;;;;;;23.67;58.67;100047.25;5010643;28;20586;-79
2022/08/02 01:49:08;;;;;;;3.90;1.98;;;;;;;23.52;59.18;100053.75;5010577;28;20038;-80
2022/08/02 01:54:23;;;;;;;5.78;1.80;;;;;;;23.32;59.12;100035.78;5010203;28;20044;-80
2022/08/02 01:56:50;;;;;;;3.50;1.73;;;;;;;23.27;59.50;100054.31;5010671;28;20124;-80
2022/08/02 01:59:20;;;;;;;3.38;1.73;;;;;;;23.09;60.13;100040.63;5010473;28;20034;-80
2022/08/02 02:01:48;;;;;;;4.22;2.00;;;;;;;22.83;60.32;100006.97;4993514;28;20065;-78
2022/08/02 02:04:15;;;;;;;6.00;2.15;;;;;;;23.00;60.57;100043.44;5014072;28;20048;-79
2022/08/02 02:06:43;;;;;;;6.38;1.98;;;;;;;23.02;61.56;100067.13;5014222;28;20038;-80
2022/08/02 02:09:11;;;;;;;3.95;1.75;;;;;;;22.62;61.72;99992.47;5014241;28;20045;-79
2022/08/02 02:11:37;;;;;;;2.95;1.83;;;;;;;22.89;61.24;100045.44;5014024;28;20042;-79
2022/08/02 02:14:06;;;;;;;4.43;1.70;;;;;;;22.90;61.09;100052.44;4996492;28;20042;-78
2022/08/02 02:16:33;;;;;;;5.15;1.88;;;;;;;22.85;61.85;100057.78;5014545;28;20108;-82
2022/08/02 02:19:01;;;;;;;3.70;1.85;;;;;;;22.74;61.84;100058.03;5013674;28;20411;-84
2022/08/02 02:21:27;;;;;;;5.32;1.70;;;;;;;22.72;61.98;100054.53;5013961;28;20042;-81
2022/08/02 02:23:53;;;;;;;4.65;1.70;;;;;;;22.34;61.89;99986.88;5014134;28;20041;-80
2022/08/02 02:26:19;;;;;;;2.58;1.90;;;;;;;22.76;61.25;100052.72;5013657;28;20037;-81
2022/08/02 02:28:46;;;;;;;5.07;1.98;;;;;;;22.40;61.54;99984.16;5013706;28;20040;-81
2022/08/02 02:31:19;;;;;;;4.47;2.00;;;;;;;22.69;61.82;100028.31;5014037;28;20038;-81
2022/08/02 02:33:55;;;;;;;3.78;1.73;;;;;;;22.84;61.75;100055.19;5014093;28;20045;-81
2022/08/02 02:36:22;;;;;;;4.10;1.90;;;;;;;22.81;61.64;100050.00;5013476;28;20034;-79
2022/08/02 02:38:49;;;;;;;6.05;2.10;;;;;;;22.78;62.01;100049.16;5013701;28;20472;-79
2022/08/02 02:41:17;;;;;;;5.00;2.00;;;;;;;22.71;62.11;100046.69;4996014;28;20503;-78
2022/08/02 02:43:43;;;;;;;4.20;2.33;;;;;;;22.70;61.81;100045.78;5013301;28;20053;-80
2022/08/02 02:46:09;;;;;;;3.78;2.00;;;;;;;22.68;61.76;100044.97;5013362;28;20033;-80
2022/08/02 02:48:36;;;;;;;3.30;1.98;;;;;;;22.60;63.12;100031.09;5013772;28;20095;-81
2022/08/02 02:51:06;;;;;;;3.42;2.00;;;;;;;22.75;64.00;100054.50;5013541;28;20091;-79
2022/08/02 02:53:52;;;;;;;3.78;2.30;;;;;;;22.66;62.79;100057.28;5013275;28;20515;-79
2022/08/02 02:56:19;;;;;;;6.85;2.05;;;;;;;22.51;62.03;100055.81;4971460;28;20568;-82
2022/08/02 02:58:46;;;;;;;4.63;1.90;;;;;;;22.43;61.91;100050.72;4971852;28;20513;-79
2022/08/02 03:01:29;;;;;;;4.13;1.80;;;;;;;22.55;61.99;100061.91;4971663;28;20046;-79
2022/08/02 03:03:59;;;;;;;7.35;2.92;;;;;;;22.33;61.55;100017.56;4955355;28;20041;-79
2022/08/02 03:06:24;;;;;;;6.35;2.38;;;;;;;22.43;61.91;100049.81;4971573;28;20078;-80
2022/08/02 03:08:50;;;;;;;9.13;2.65;;;;;;;22.49;63.09;100054.13;4971624;28;20066;-81
2022/08/02 03:11:17;;;;;;;6.57;2.10;;;;;;;22.59;63.87;100067.09;4955200;28;20049;-80
2022/08/02 03:13:43;;;;;;;4.05;2.15;;;;;;;22.36;64.36;100033.28;4954763;28;20233;-80
2022/08/02 03:16:10;;;;;;;3.92;1.92;;;;;;;22.50;63.08;100058.50;4971568;28;20047;-80
2022/08/02 03:18:38;;;;;;;7.55;2.30;;;;;;;22.38;63.24;100031.53;4971348;28;20114;-80
2022/08/02 03:21:08;;;;;;;6.18;2.33;;;;;;;22.52;60.35;100054.03;4971111;28;20521;-80
2022/08/02 03:23:34;;;;;;;3.50;2.30;;;;;;;22.49;63.13;100062.00;4971455;28;20134;-80
2022/08/02 03:26:00;;;;;;;6.05;2.75;;;;;;;22.27;62.83;100030.84;4971121;28;20046;-80
2022/08/02 03:28:26;;;;;;;3.75;2.30;;;;;;;22.26;60.74;100027.31;4994047;28;20030;-80
2022/08/02 03:30:52;;;;;;;6.32;2.80;;;;;;;22.22;63.22;100048.44;5012991;28;20540;-80
2022/08/02 03:33:22;;;;;;;4.38;2.70;;;;;;;22.27;63.65;100052.72;4995128;28;20036;-79
2022/08/02 03:35:50;;;;;;;7.60;2.80;;;;;;;22.19;63.12;100051.13;5012427;28;20488;-80
2022/08/02 03:38:18;;;;;;;5.93;2.38;;;;;;;21.92;61.08;100009.53;5012264;28;20038;-80
2022/08/02 03:40:45;;;;;;;7.10;2.80;;;;;;;22.12;62.67;100060.91;5012674;28;20077;-81
2022/08/02 03:43:11;;;;;;;4.70;2.35;;;;;;;21.47;61.32;99941.94;5012478;28;20450;-81
2022/08/02 03:45:49;;;;;;;4.78;2.58;;;;;;;22.16;61.19;100062.56;4994907;28;20037;-80
2022/08/02 03:48:15;;;;;;;3.80;2.28;;;;;;;21.85;61.79;100004.41;5012415;28;20034;-81
2022/08/02 03:50:44;;;;;;;4.53;2.70;;;;;;;22.14;62.24;100070.50;5012282;28;20104;-80
2022/08/02 03:53:10;;;;;;;3.75;2.60;;;;;;;22.18;62.49;100067.78;5012632;28;20037;-80
2022/08/02 03:55:37;;;;;;;5.78;2.60;;;;;;;22.00;63.06;100034.81;5012415;28;20053;-80
2022/08/02 03:58:03;;;;;;;4.00;2.50;;;;;;;22.13;64.29;100075.75;5012159;28;20034;-80
2022/08/02 04:00:28;;;;;;;7.57;2.53;;;;;;;21.98;64.74;100056.72;5012306;28;20113;-80
2022/08/02 04:02:53;;;;;;;4.18;2.50;;;;;;;22.22;63.60;100085.25;5011856;28;20492;-80
2022/08/02 04:05:19;;;;;;;4.35;2.45;;;;;;;22.21;62.94;100092.28;5012304;28;20457;-80
2022/08/02 04:07:47;;;;;;;9.55;2.70;;;;;;;21.98;64.53;100083.00;4994446;28;20447;-83
2022/08/02 04:10:12;;;;;;;7.80;2.50;;;;;;;21.94;64.70;100085.72;5011849;28;20480;-82
2022/08/02 04:12:38;;;;;;;5.30;2.97;;;;;;;21.82;64.90;100068.41;5012121;28;20033;-81
2022/08/02 04:15:05;;;;;;;4.90;3.08;;;;;;;22.02;63.36;100088.22;5012112;28;20038;-77
2022/08/02 04:17:34;;;;;;;6.63;2.58;;;;;;;22.09;62.93;100103.00;5011586;28;20507;-78
2022/08/02 04:20:06;;;;;;;5.85;3.10;;;;;;;22.06;63.58;100103.06;5011368;28;20111;-81
2022/08/02 04:22:48;;;;;;;4.70;2.30;;;;;;;22.01;63.01;100083.84;5011585;28;20508;-81
2022/08/02 04:25:15;;;;;;;4.95;2.50;;;;;;;22.10;61.96;100084.56;5011149;28;20034;-81
2022/08/02 04:27:42;;;;;;;8.88;5.25;;;;;;;22.34;63.40;100115.72;5011477;28;20100;-81
2022/08/02 04:30:08;;;;;;;4.28;2.95;;;;;;;22.06;62.54;100068.88;5011709;28;20040;-80
2022/08/02 04:32:34;;;;;;;5.53;2.40;;;;;;;22.36;62.68;100096.41;5011783;28;20045;-78
2022/08/02 04:35:00;;;;;;;4.55;2.70;;;;;;;22.49;62.99;100106.72;5011812;28;20030;-79
2022/08/02 04:37:26;;;;;;;5.95;2.22;;;;;;;22.35;62.52;100075.41;5011583;28;20476;-79
2022/08/02 04:39:51;;;;;;;9.25;2.38;;;;;;;22.51;61.97;100102.31;5011598;28;20043;-80
2022/08/02 04:42:21;;;;;;;4.85;2.15;;;;;;;22.29;62.85;100057.94;5011531;28;20038;-79
2022/08/02 04:44:48;;;;;;;4.30;2.25;;;;;;;22.73;62.53;100122.06;5011372;28;20041;-79
2022/08/02 04:47:14;;;;;;;2.58;1.90;;;;;;;22.66;62.25;100088.00;4993819;28;20038;-80
2022/08/02 04:49:39;;;;;;;3.22;2.22;;;;;;;22.02;62.26;99986.59;4993721;28;20084;-81
2022/08/02 04:52:05;;;;;;;2.70;2.33;;;;;;;22.66;63.45;100114.31;5008945;28;20081;-82
2022/08/02 04:54:30;;;;;;;3.83;2.35;;;;;;;22.68;61.94;100107.25;5011427;28;20033;-80
2022/08/02 04:56:56;;;;;;;4.32;2.50;;;;;;;22.71;62.19;100118.59;5007962;28;20397;-78
2022/08/02 04:59:21;;;;;;;3.47;2.38;;;;;;;22.38;61.14;100099.91;5011061;28;20042;-79
2022/08/02 05:01:47;;;;;;;5.30;2.65;;;;;;;22.27;61.87;100113.22;5011174;28;20034;-80
2022/08/02 05:04:13;;;;;;;2.75;2.10;;;;;;;22.11;62.93;100102.06;5011041;28;20197;-80
2022/08/02 05:06:38;;;;;;;6.65;2.38;;;;;;;21.84;63.76;100103.38;5011093;28;20041;-80
2022/08/02 05:09:04;;;;;;;6.50;2.97;;;;;;;21.89;63.40;100092.81;5010769;28;20034;-80
2022/08/02 05:11:30;;;;;;;5.57;2.50;;;;;;;22.19;64.01;100127.38;4993264;28;20046;-82
2022/08/02 05:13:55;;;;;;;8.15;2.20;;;;;;;22.31;63.46;100119.28;4993261;28;20038;-79
2022/08/02 05:16:21;;;;;;;4.75;2.40;;;;;;;22.38;62.98;100120.06;5010612;28;20092;-80
2022/08/02 05:18:46;;;;;;;6.95;2.88;;;;;;;22.31;63.18;100085.09;5010478;28;20073;-80
2022/08/02 05:21:15;;;;;;;3.15;2.63;;;;;;;22.58;62.75;100117.06;4968693;28;20047;-80
2022/08/02 05:23:41;;;;;;;2.80;2.33;;;;;;;22.45;62.89;100104.16;4969180;28;20067;-80
2022/08/02 05:26:06;;;;;;;5.85;2.60;;;;;;;22.60;63.77;100128.44;4969286;28;20528;-80
2022/08/02 05:28:31;;;;;;;4.65;2.45;;;;;;;22.67;62.86;100127.44;4969013;28;20130;-80
2022/08/02 05:30:57;;;;;;;5.20;2.60;;;;;;;22.45;63.76;100101.53;4969430;28;20087;-82
2022/08/02 05:33:22;;;;;;;7.22;2.88;;;;;;;22.55;64.67;100122.41;4969142;28;20047;-82
2022/08/02 05:35:48;;;;;;;5.43;2.35;;;;;;;22.37;64.31;100100.81;4969042;28;20110;-82
2022/08/02 05:38:13;;;;;;;3.25;2.30;;;;;;;22.36;66.21;100087.66;4969013;28;20119;-82
2022/08/02 05:40:39;;;;;;;3.72;2.33;;;;;;;22.44;65.00;100089.28;4969309;28;20047;-83
2022/08/02 05:43:12;;;;;;;4.75;2.53;;;;;;;22.69;66.49;100120.41;4952812;28;20070;-82
2022/08/02 05:45:37;;;;;;;6.05;2.80;;;;;;;22.91;66.08;100117.34;4968922;28;20129;-82
2022/08/02 05:48:03;;;;;;;6.45;2.90;;;;;;;23.06;65.35;100110.91;4968979;28;20133;-82
2022/08/02 05:50:30;;;;;;;8.15;2.53;;;;;;;23.29;63.52;100122.75;4968993;28;20524;-82
2022/08/02 05:53:03;;;;;;;5.30;2.35;;;;;;;23.47;61.98;100129.41;4968736;28;20486;-82
2022/08/02 05:55:34;;;;;;;5.93;2.45;;;;;;;23.49;63.35;100117.94;4968841;28;20464;-82
2022/08/02 05:58:02;;;;;;;3.20;2.33;;;;;;;23.58;62.57;100136.16;4978477;28;20132;-82
2022/08/02 06:00:31;;;;;;;4.50;2.60;;;;;;;23.24;63.16;100083.34;5010487;28;20030;-82
2022/08/02 06:03:03;;;;;;;3.90;2.58;;;;;;;23.75;63.75;100148.97;5010732;28;20038;-79
2022/08/02 06:05:33;;;;;;;6.47;2.83;;;;;;;23.76;63.45;100120.81;5010750;28;20036;-80
2022/08/02 06:08:00;;;;;;;9.25;3.15;;;;;;;23.67;62.74;100097.31;5010433;28;20631;-80
2022/08/02 06:10:27;;;;;;;8.07;3.00;;;;;;;24.09;60.53;100143.81;5010593;28;20038;-78
2022/08/02 06:13:11;;;;;;;11.38;3.17;;;;;;;23.79;61.84;100101.44;5010056;28;20104;-78
2022/08/02 06:15:38;;;;;;;22.10;5.05;;;;;;;24.06;67.83;100148.28;5010461;28;20038;-79
2022/08/02 06:18:05;;;;;;;6.47;2.80;;;;;;;24.06;68.47;100156.19;5010283;28;20038;-78
2022/08/02 06:20:34;;;;;;;5.93;2.42;;;;;;;23.94;62.49;100140.66;5009605;28;20038;-80
2022/08/02 06:23:02;;;;;;;4.35;2.50;;;;;;;23.81;70.08;100118.94;4992028;28;20060;-80
2022/08/02 06:25:28;;;;;;;4.07;2.63;;;;;;;24.13;67.90;100162.16;4992024;28;20040;-79
2022/08/02 06:27:54;;;;;;;6.18;2.55;;;;;;;24.21;67.41;100165.50;5010597;28;20042;-78
2022/08/02 06:30:20;;;;;;;8.32;2.97;;;;;;;24.25;69.52;100158.38;5010344;28;20049;-79
2022/08/02 06:32:50;;;;;;;8.27;2.97;;;;;;;24.37;65.93;100154.56;5010000;28;20614;-79
2022/08/02 06:35:15;;;;;;;8.98;3.28;;;;;;;24.45;63.66;100146.44;5010490;28;20572;-81
2022/08/02 06:37:50;;;;;;;11.27;3.30;;;;;;;24.59;62.34;100162.78;5009553;28;20046;-75
2022/08/02 06:40:52;;;;;;;12.88;4.47;;;;;;;24.74;61.30;100164.19;4999522;28;20034;-80
2022/08/02 06:43:40;;;;;;;19.73;4.57;;;;;;;24.82;62.47;100156.94;5008937;28;20034;-78
2022/08/02 06:46:06;;;;;;;33.72;7.35;;;;;;;24.87;58.61;100154.16;5009794;28;20029;-78
2022/08/02 06:48:34;;;;;;;32.42;7.95;;;;;;;24.96;61.67;100160.97;5009281;28;20038;-78
2022/08/02 06:51:02;;;;;;;33.33;7.53;;;;;;;25.00;61.39;100163.47;5013388;28;20535;-79
2022/08/02 06:53:27;;;;;;;33.97;8.07;;;;;;;25.03;62.01;100147.56;4995809;28;20074;-78
2022/08/02 06:55:52;;;;;;;33.63;6.65;;;;;;;25.10;61.42;100144.75;5013213;28;20062;-78
2022/08/02 06:58:18;;;;;;;17.65;5.93;;;;;;;25.16;60.24;100141.91;5013579;28;20046;-78
2022/08/02 07:00:43;;;;;;;17.85;4.72;;;;;;;24.98;60.88;100109.84;5013183;28;20400;-80
2022/08/02 07:03:09;;;;;;;15.63;4.38;;;;;;;25.29;58.98;100135.34;5013234;28;20412;-79
2022/08/02 07:05:35;;;;;;;23.13;6.60;;;;;;;25.41;62.11;100135.94;5013187;28;20037;-78
2022/08/02 07:08:01;;;;;;;29.02;7.28;;;;;;;25.59;58.89;100156.53;5013401;28;20044;-77
2022/08/02 07:10:27;;;;;;;22.30;6.45;;;;;;;25.31;60.75;100109.75;5013603;28;20124;-80
2022/08/02 07:12:52;;;;;;;19.58;4.93;;;;;;;25.67;60.19;100151.00;5012977;28;20173;-76
2022/08/02 07:15:18;;;;;;;19.52;5.00;;;;;;;25.74;61.99;100149.06;5012873;28;20034;-77
2022/08/02 07:17:44;;;;;;;11.82;3.88;;;;;;;25.78;59.04;100150.69;5013164;28;20033;-77
2022/08/02 07:20:09;;;;;;;12.20;4.32;;;;;;;25.79;57.62;100149.75;5013124;28;20034;-77
2022/08/02 07:22:35;;;;;;;14.57;3.63;;;;;;;25.79;60.26;100147.97;5013308;28;20053;-81
2022/08/02 07:25:01;;;;;;;15.00;3.95;;;;;;;25.80;56.60;100140.94;5013314;28;20181;-76
2022/08/02 07:27:27;;;;;;;20.83;5.25;;;;;;;25.83;57.17;100146.09;5012711;28;20496;-76
2022/08/02 07:29:53;;;;;;;25.83;5.88;;;;;;;25.83;54.88;100122.31;4971225;28;20034;-77
2022/08/02 07:32:23;;;;;;;21.27;5.50;;;;;;;25.76;55.82;100087.28;4971187;28;20054;-76
2022/08/02 07:34:49;;;;;;;17.52;4.65;;;;;;;25.74;55.64;100089.09;4971438;28;20466;-77
2022/08/02 07:37:15;;;;;;;20.60;5.13;;;;;;;25.80;57.90;100094.19;4971392;28;20050;-76
2022/08/02 07:39:40;;;;;;;25.10;4.93;;;;;;;26.13;54.45;100128.44;4971114;28;20065;-76
2022/08/02 07:42:06;;;;;;;10.43;3.60;;;;;;;26.14;54.81;100132.81;4971085;28;20043;-78
2022/08/02 07:44:33;;;;;;;19.40;3.90;;;;;;;26.22;53.45;100134.31;4968729;28;20047;-78
2022/08/02 07:47:00;;;;;;;16.08;3.60;;;;;;;26.04;54.18;100077.56;4961572;28;20035;-78
2022/08/02 07:49:27;;;;;;;14.60;3.53;;;;;;;26.35;53.88;100130.34;4956789;28;20039;-77
2022/08/02 07:51:52;;;;;;;9.23;3.42;;;;;;;25.77;53.75;100037.88;4957447;28;20061;-79
2022/08/02 07:54:18;;;;;;;8.85;3.22;;;;;;;26.24;52.34;100135.97;4963774;28;20477;-80
2022/08/02 07:56:43;;;;;;;11.88;3.22;;;;;;;26.26;54.97;100128.88;4969678;28;20186;-77
2022/08/02 07:59:09;;;;;;;9.15;3.30;;;;;;;26.35;51.24;100124.19;4968710;28;20493;-77
2022/08/02 08:01:36;;;;;;;8.23;2.47;;;;;;;26.41;53.61;100116.03;5002031;28;20038;-76
2022/08/02 08:04:03;;;;;;;7.97;2.47;;;;;;;26.46;52.64;100132.63;5011303;28;20037;-77
2022/08/02 08:06:29;;;;;;;8.82;2.90;;;;;;;26.57;51.16;100138.41;5011246;28;20030;-78
2022/08/02 08:08:56;;;;;;;12.00;3.00;;;;;;;26.71;50.34;100142.38;5010910;28;20461;-80
2022/08/02 08:11:22;;;;;;;10.05;2.75;;;;;;;26.76;50.09;100129.84;5011023;28;20120;-76
2022/08/02 08:13:47;;;;;;;11.00;2.90;;;;;;;26.91;50.18;100137.22;5011068;28;20072;-77
2022/08/02 08:16:12;;;;;;;9.32;3.40;;;;;;;26.79;49.11;100084.69;5011418;28;20046;-80
2022/08/02 08:18:38;;;;;;;9.45;2.88;;;;;;;26.88;49.07;100065.84;5010774;28;20038;-79
2022/08/02 08:21:04;;;;;;;6.07;2.28;;;;;;;27.44;48.77;100130.00;5010927;28;20061;-80
2022/08/02 08:23:31;;;;;;;12.45;2.78;;;;;;;27.48;48.23;100130.75;5010531;28;20504;-78
2022/08/02 08:25:56;;;;;;;6.60;2.55;;;;;;;27.23;47.45;100083.97;5010459;28;20114;-78
2022/08/02 08:28:22;;;;;;;6.95;2.33;;;;;;;27.55;49.46;100127.81;5010233;28;20069;-77
2022/08/02 08:30:48;;;;;;;5.63;1.95;;;;;;;27.52;46.63;100116.47;5010597;28;20045;-82
2022/08/02 08:33:13;;;;;;;11.30;2.50;;;;;;;27.74;46.84;100116.47;5010813;28;20041;-76
2022/08/02 08:35:39;;;;;;;5.63;2.17;;;;;;;27.66;46.55;100087.59;5010718;28;20038;-75
2022/08/02 08:38:05;;;;;;;4.88;2.25;;;;;;;27.97;45.79;100122.63;5010640;28;20109;-77
2022/08/02 08:40:31;;;;;;;10.60;2.58;;;;;;;28.00;49.23;100130.47;5011170;28;20026;-75
2022/08/02 08:42:56;;;;;;;14.07;2.47;;;;;;;28.12;49.47;100129.97;4993530;28;20042;-75
2022/08/02 08:45:22;;;;;;;6.68;2.67;;;;;;;28.16;48.58;100125.41;5013416;28;20043;-73
2022/08/02 08:47:54;;;;;;;9.70;2.67;;;;;;;28.03;47.99;100117.06;5015373;28;20041;-72
2022/08/02 08:50:23;;;;;;;8.50;2.22;;;;;;;27.75;45.53;100128.78;5010873;28;20026;-73
2022/08/02 08:53:00;;;;;;;10.38;2.40;;;;;;;27.74;46.62;100120.00;4999242;28;20075;-73
2022/08/02 08:55:27;;;;;;;7.30;2.22;;;;;;;27.91;46.24;100123.72;5002136;28;20026;-71
2022/08/02 08:57:53;;;;;;;10.25;2.95;;;;;;;27.93;44.74;100109.47;5000682;28;20101;-74
2022/08/02 09:00:19;;;;;;;6.03;2.10;;;;;;;28.13;46.08;100112.28;5000433;28;20034;-73
2022/08/02 09:02:46;;;;;;;5.35;1.75;;;;;;;28.29;47.04;100117.78;5002307;28;20044;-73
2022/08/02 09:05:14;;;;;;;8.38;2.55;;;;;;;28.31;45.36;100113.28;5000391;28;20117;-73
2022/08/02 09:07:41;;;;;;;4.78;1.70;;;;;;;28.38;43.23;100112.94;5002854;28;20060;-79
2022/08/02 09:10:40;;;;;;;2.92;1.70;;;;;;;28.58;42.83;100109.41;5001785;28;20038;-78
2022/08/02 09:13:23;;;;;;;4.25;1.90;;;;;;;28.15;46.04;100020.19;5010234;28;20091;-78
2022/08/02 09:16:04;;;;;;;8.55;2.20;;;;;;;28.05;46.89;100033.84;4998834;28;20042;-79
2022/08/02 09:18:38;;;;;;;4.13;1.75;;;;;;;28.27;45.10;100107.25;5007679;28;20037;-79
2022/08/02 09:21:07;;;;;;;7.47;2.47;;;;;;;28.16;44.69;100112.13;4992260;28;20112;-78
2022/08/02 09:23:47;;;;;;;13.23;6.22;;;;;;;28.19;43.73;100107.56;4989893;28;20480;-79
2022/08/02 09:26:15;;;;;;;6.32;2.30;;;;;;;28.43;42.93;100106.59;5007847;28;20034;-78
2022/08/02 09:28:42;;;;;;;4.38;2.05;;;;;;;28.55;42.04;100098.94;5010418;28;20053;-80
2022/08/02 09:31:16;;;;;;;10.15;2.58;;;;;;;28.71;43.91;100101.81;5011072;28;20038;-79
2022/08/02 09:33:44;;;;;;;5.00;2.80;;;;;;;28.96;42.96;100102.50;5010218;28;20067;-79
2022/08/02 09:36:12;;;;;;;6.43;2.20;;;;;;;29.02;41.38;100075.66;5010894;28;20038;-78
2022/08/02 09:38:39;;;;;;;10.73;2.95;;;;;;;29.23;40.91;100099.50;5010666;28;20093;-78
2022/08/02 09:41:18;;;;;;;5.65;2.13;;;;;;;29.46;46.24;100101.97;5009538;28;20045;-76
2022/08/02 09:43:43;;;;;;;5.05;2.35;;;;;;;29.60;42.25;100096.00;5000917;28;20481;-74
2022/08/02 09:46:16;;;;;;;5.15;1.80;;;;;;;29.69;40.01;100098.19;5001082;28;20104;-75
2022/08/02 09:48:58;;;;;;;8.20;2.28;;;;;;;29.85;40.49;100095.63;4996024;28;20104;-77
2022/08/02 09:51:26;;;;;;;6.63;1.85;;;;;;;30.07;39.73;100097.28;4998674;28;20574;-75
2022/08/02 09:53:57;;;;;;;4.78;2.00;;;;;;;30.12;40.83;100092.56;4999492;28;20089;-80
2022/08/02 09:56:24;;;;;;;5.28;1.90;;;;;;;30.09;40.10;100079.41;5000449;28;20037;-76
2022/08/02 09:58:52;;;;;;;7.35;2.00;;;;;;;29.83;39.84;100046.09;4983503;28;20065;-78
2022/08/02 10:01:20;;;;;;;6.68;2.38;;;;;;;29.94;40.72;100091.69;5007579;28;20045;-78
2022/08/02 10:04:04;;;;;;;5.47;2.00;;;;;;;29.84;43.60;100093.06;5009679;28;20581;-78
2022/08/02 10:06:31;;;;;;;3.58;1.80;;;;;;;29.63;42.44;100084.34;5002679;28;20119;-77
2022/08/02 10:08:57;;;;;;;3.47;2.05;;;;;;;29.41;41.98;100076.53;5007897;28;20033;-78
2022/08/02 10:11:23;;;;;;;5.00;2.28;;;;;;;29.49;42.72;100093.84;5010604;28;20044;-76
2022/08/02 10:13:51;;;;;;;5.18;2.20;;;;;;;29.63;41.77;100092.31;5010627;28;20127;-77
2022/08/02 10:16:23;;;;;;;3.03;1.88;;;;;;;29.64;40.52;100088.72;5010160;28;20060;-77
2022/08/02 10:18:54;;;;;;;5.45;2.03;;;;;;;29.76;40.47;100085.47;5010312;28;20124;-77
2022/08/02 10:21:57;;;;;;;5.05;2.20;;;;;;;30.17;41.85;100084.38;5010224;28;20044;-76
2022/08/02 10:24:31;;;;;;;5.50;2.08;;;;;;;30.38;39.16;100076.19;4949817;29;20050;-78
2022/08/02 10:26:58;;;;;;;4.47;1.90;;;;;;;30.26;39.13;100027.13;4953475;29;20039;-77
2022/08/02 10:29:32;;;;;;;4.65;1.90;;;;;;;30.65;37.70;100049.94;4953179;29;20039;-77
2022/08/02 10:32:03;;;;;;;6.88;2.20;;;;;;;30.75;38.69;100080.47;4953298;29;20039;-77
2022/08/02 10:34:36;;;;;;;2.72;1.50;;;;;;;30.89;37.78;100071.72;4953080;29;20047;-77
2022/08/02 10:37:05;;;;;;;3.15;1.85;;;;;;;30.91;38.27;100084.97;4952769;29;20729;-76
2022/08/02 10:39:41;;;;;;;2.27;1.70;;;;;;;30.89;37.07;100062.88;4952850;29;20043;-76
2022/08/02 10:42:08;;;;;;;2.55;1.88;;;;;;;31.12;37.47;100070.50;4936704;29;20047;-80
2022/08/02 10:44:35;;;;;;;5.30;1.73;;;;;;;31.25;36.99;100064.47;4952849;29;20042;-81
2022/08/02 10:47:13;;;;;;;5.53;2.10;;;;;;;31.23;36.92;100063.69;4952667;29;20043;-80
2022/08/02 10:50:07;;;;;;;6.30;2.20;;;;;;;31.22;36.61;100048.66;4952788;29;20074;-81
2022/08/02 10:52:33;;;;;;;8.95;2.30;;;;;;;31.16;36.52;100009.84;4914416;29;20044;-81
2022/08/02 10:55:09;;;;;;;3.55;2.17;;;;;;;31.73;37.13;100068.00;4914500;29;20160;-82
2022/08/02 10:57:35;;;;;;;2.92;1.90;;;;;;;31.60;36.84;100043.81;4914172;29;20047;-83
2022/08/02 11:00:11;;;;;;;11.50;2.20;;;;;;;32.00;36.53;100067.34;4889485;29;20677;-81
2022/08/02 11:02:42;;;;;;;5.93;2.05;;;;;;;32.24;35.94;100062.34;4876749;29;20057;-81
2022/08/02 11:05:10;;;;;;;4.45;2.03;;;;;;;32.30;35.03;100060.25;4876796;29;20074;-81
2022/08/02 11:07:45;;;;;;;4.07;2.10;;;;;;;32.31;34.82;100065.50;4888614;29;20064;-81
2022/08/02 11:10:23;;;;;;;2.58;1.75;;;;;;;32.55;38.08;100056.94;4914120;29;20037;-80
2022/08/02 11:13:10;;;;;;;2.90;1.90;;;;;;;32.49;36.91;100051.97;4914233;29;20083;-81
2022/08/02 11:16:00;;;;;;;3.60;1.70;;;;;;;32.46;35.35;100047.66;4913997;29;20152;-82
2022/08/02 11:18:50;;;;;;;5.13;1.80;;;;;;;32.69;33.69;100051.59;4914076;29;20115;-82
2022/08/02 11:21:30;;;;;;;8.23;2.20;;;;;;;32.70;32.97;100039.97;4913647;29;20091;-82
2022/08/02 11:24:15;;;;;;;8.68;2.38;;;;;;;32.78;32.83;100015.44;4913994;29;20507;-82
2022/08/02 11:26:42;;;;;;;3.08;2.08;;;;;;;33.04;35.78;100037.84;4914051;29;20498;-83
2022/08/02 11:29:11;;;;;;;6.95;2.92;;;;;;;33.10;34.04;100025.91;4970126;28;20149;-83
2022/08/02 11:31:44;;;;;;;6.10;2.53;;;;;;;33.31;37.71;100041.53;5012875;28;20072;-82
2022/08/02 11:34:10;;;;;;;7.70;2.40;;;;;;;33.21;35.11;100002.00;4994651;28;20081;-81
2022/08/02 11:36:43;;;;;;;10.82;2.42;;;;;;;33.60;33.00;100031.59;5012873;28;20037;-80